Time,TemperatureF,DewpointF,PressureIn,WindDirection,WindDirectionDegrees,WindSpeedMPH,WindSpeedGustMPH,Humidity,HourlyPrecipIn,Conditions,Clouds,dailyrainin,SoftwareType,DateUTC
2013-09-27 00:00:00,77.4,71.1,29.90,NNE,23,0.2,0.7,81,0.00,,,0.00,WUHU216HW,2013-09-27 04:00:00,
2013-09-27 00:01:00,77.4,71.1,29.90,East,90,0.9,0.9,81,0.00,,,0.00,WUHU216HW,2013-09-27 04:01:00,
2013-09-27 00:06:00,77.4,71.1,29.90,East,90,1.1,1.1,81,0.00,,,0.00,WUHU216HW,2013-09-27 04:06:00,
2013-09-27 00:11:00,77.2,70.9,29.90,NE,45,0.7,1.1,81,0.00,,,0.00,WUHU216HW,2013-09-27 04:11:00,
2013-09-27 00:16:00,77.0,70.7,29.90,NNE,23,0.0,1.1,81,0.00,,,0.00,WUHU216HW,2013-09-27 04:16:00,
2013-09-27 00:21:00,77.0,70.7,29.90,North,0,0.0,1.1,81,0.00,,,0.00,WUHU216HW,2013-09-27 04:21:00,
2013-09-27 00:26:00,77.0,70.7,29.90,NNW,338,0.0,1.1,81,0.00,,,0.00,WUHU216HW,2013-09-27 04:26:00,
2013-09-27 00:31:00,77.0,70.7,29.90,NNW,338,0.0,0.4,81,0.00,,,0.00,WUHU216HW,2013-09-27 04:31:00,
2013-09-27 00:36:00,76.9,70.6,29.90,North,0,0.0,0.4,81,0.00,,,0.00,WUHU216HW,2013-09-27 04:36:00,
2013-09-27 00:41:00,76.9,70.6,29.90,North,0,0.2,0.4,81,0.00,,,0.00,WUHU216HW,2013-09-27 04:41:00,
2013-09-27 00:46:00,76.9,70.6,29.90,North,0,0.0,0.4,81,0.00,,,0.00,WUHU216HW,2013-09-27 04:46:00,
2013-09-27 00:51:00,76.9,70.6,29.90,NNW,338,0.0,0.2,81,0.00,,,0.00,WUHU216HW,2013-09-27 04:51:00,
2013-09-27 00:56:00,76.9,70.6,29.90,North,0,0.0,0.4,81,0.00,,,0.00,WUHU216HW,2013-09-27 04:56:00,
2013-09-27 01:01:00,76.9,70.6,29.90,NNE,23,0.0,0.4,81,0.00,,,0.00,WUHU216HW,2013-09-27 05:01:00,
2013-09-27 01:06:00,76.7,70.4,29.90,NNW,338,0.0,0.7,81,0.00,,,0.00,WUHU216HW,2013-09-27 05:06:00,
2013-09-27 01:11:00,76.7,70.4,29.90,NNE,23,0.0,0.7,81,0.00,,,0.00,WUHU216HW,2013-09-27 05:11:00,
2013-09-27 01:16:00,76.7,70.4,29.90,North,0,0.0,0.4,81,0.00,,,0.00,WUHU216HW,2013-09-27 05:16:00,
2013-09-27 01:21:00,76.7,70.4,29.90,North,0,0.0,0.9,81,0.00,,,0.00,WUHU216HW,2013-09-27 05:21:00,
2013-09-27 01:26:00,76.5,70.3,29.90,NNE,23,0.0,0.9,81,0.00,,,0.00,WUHU216HW,2013-09-27 05:26:00,
2013-09-27 01:31:00,76.5,70.3,29.90,NNE,23,0.0,0.4,81,0.00,,,0.00,WUHU216HW,2013-09-27 05:31:00,
2013-09-27 01:36:00,76.5,70.3,29.90,North,0,0.0,0.4,81,0.00,,,0.00,WUHU216HW,2013-09-27 05:36:00,
2013-09-27 01:41:00,76.5,70.3,29.90,NNW,338,0.0,0.4,81,0.00,,,0.00,WUHU216HW,2013-09-27 05:41:00,
2013-09-27 01:46:00,76.3,70.1,29.90,ENE,68,0.0,1.1,81,0.00,,,0.00,WUHU216HW,2013-09-27 05:46:00,
2013-09-27 01:51:00,76.3,70.1,29.90,NNE,23,0.0,1.1,81,0.00,,,0.00,WUHU216HW,2013-09-27 05:51:00,
2013-09-27 01:56:00,76.1,69.9,29.90,NW,315,0.4,0.7,81,0.00,,,0.00,WUHU216HW,2013-09-27 05:56:00,
2013-09-27 02:01:00,76.0,69.8,29.90,North,0,0.4,0.9,81,0.00,,,0.00,WUHU216HW,2013-09-27 06:01:00,
2013-09-27 02:06:00,76.0,70.1,29.90,ENE,68,0.2,0.9,82,0.00,,,0.00,WUHU216HW,2013-09-27 06:06:00,
2013-09-27 02:11:00,75.8,69.9,29.90,NW,315,0.2,1.6,82,0.00,,,0.00,WUHU216HW,2013-09-27 06:11:00,
2013-09-27 02:16:00,75.8,69.9,29.90,North,0,0.0,1.6,82,0.00,,,0.00,WUHU216HW,2013-09-27 06:16:00,
2013-09-27 02:21:00,75.6,69.8,29.90,NNW,338,0.0,0.4,82,0.00,,,0.00,WUHU216HW,2013-09-27 06:21:00,
2013-09-27 02:26:00,75.6,69.8,29.90,North,0,0.0,1.1,82,0.00,,,0.00,WUHU216HW,2013-09-27 06:26:00,
2013-09-27 02:31:00,75.6,69.8,29.90,North,0,0.0,1.1,82,0.00,,,0.00,WUHU216HW,2013-09-27 06:31:00,
2013-09-27 02:36:00,75.4,69.6,29.90,North,0,0.0,0.2,82,0.00,,,0.00,WUHU216HW,2013-09-27 06:36:00,
2013-09-27 02:41:00,75.4,69.6,29.90,NNW,338,0.0,0.2,82,0.00,,,0.00,WUHU216HW,2013-09-27 06:41:00,
2013-09-27 02:46:00,75.4,69.6,29.90,NNW,338,0.0,0.0,82,0.00,,,0.00,WUHU216HW,2013-09-27 06:46:00,
2013-09-27 02:51:00,75.4,69.6,29.90,North,0,0.0,0.0,82,0.00,,,0.00,WUHU216HW,2013-09-27 06:51:00,
2013-09-27 02:56:00,75.2,69.5,29.91,North,0,0.0,0.0,82,0.00,,,0.00,WUHU216HW,2013-09-27 06:56:00,
2013-09-27 03:01:00,75.2,69.5,29.90,North,0,0.0,0.0,82,0.00,,,0.00,WUHU216HW,2013-09-27 07:01:00,
2013-09-27 03:06:00,75.2,69.5,29.90,North,0,0.0,0.0,82,0.00,,,0.00,WUHU216HW,2013-09-27 07:06:00,
2013-09-27 03:11:00,75.2,69.5,29.91,NNW,338,0.0,0.0,82,0.00,,,0.00,WUHU216HW,2013-09-27 07:11:00,
2013-09-27 03:16:00,75.1,69.3,29.90,NNW,338,0.0,0.0,82,0.00,,,0.00,WUHU216HW,2013-09-27 07:16:00,
2013-09-27 03:21:00,75.1,69.3,29.90,NNW,338,0.0,0.0,82,0.00,,,0.00,WUHU216HW,2013-09-27 07:21:00,
2013-09-27 03:26:00,75.1,69.3,29.90,NNW,338,0.0,0.0,82,0.00,,,0.00,WUHU216HW,2013-09-27 07:26:00,
2013-09-27 03:31:00,74.9,69.1,29.90,NNW,338,0.0,0.0,82,0.00,,,0.00,WUHU216HW,2013-09-27 07:31:00,
2013-09-27 03:36:00,74.7,69.2,29.91,North,0,0.0,0.0,83,0.00,,,0.00,WUHU216HW,2013-09-27 07:36:00,
2013-09-27 03:41:00,74.5,69.0,29.91,North,0,0.0,0.0,83,0.00,,,0.00,WUHU216HW,2013-09-27 07:41:00,
2013-09-27 03:46:00,74.3,68.9,29.90,North,0,0.0,0.2,83,0.00,,,0.00,WUHU216HW,2013-09-27 07:46:00,
2013-09-27 03:49:00,74.3,68.9,29.90,NNW,338,0.0,0.2,83,0.00,,,0.00,WUHU216HW,2013-09-27 07:49:00,
2013-09-27 03:54:00,74.2,68.7,29.90,NNE,23,0.0,0.7,83,0.00,,,0.00,WUHU216HW,2013-09-27 07:54:00,
2013-09-27 03:59:00,74.2,68.7,29.90,North,0,0.0,0.7,83,0.00,,,0.00,WUHU216HW,2013-09-27 07:59:00,
2013-09-27 04:04:00,74.2,68.7,29.91,NNW,338,0.0,0.4,83,0.00,,,0.00,WUHU216HW,2013-09-27 08:04:00,
2013-09-27 04:09:00,74.0,68.5,29.90,NNE,23,0.0,0.0,83,0.00,,,0.00,WUHU216HW,2013-09-27 08:09:00,
2013-09-27 04:14:00,74.0,68.9,29.90,NNE,23,0.0,0.4,84,0.00,,,0.00,WUHU216HW,2013-09-27 08:14:00,
2013-09-27 04:19:00,73.8,68.7,29.90,North,0,0.2,1.3,84,0.00,,,0.00,WUHU216HW,2013-09-27 08:19:00,
2013-09-27 04:24:00,73.6,68.5,29.90,NNW,338,0.4,1.3,84,0.00,,,0.00,WUHU216HW,2013-09-27 08:24:00,
2013-09-27 04:29:00,73.6,68.5,29.90,ESE,113,0.0,0.4,84,0.00,,,0.00,WUHU216HW,2013-09-27 08:29:00,
2013-09-27 04:34:00,73.6,68.5,29.90,NNW,338,0.2,0.4,84,0.00,,,0.00,WUHU216HW,2013-09-27 08:34:00,
2013-09-27 04:39:00,73.4,68.3,29.90,North,0,0.0,0.4,84,0.00,,,0.00,WUHU216HW,2013-09-27 08:39:00,
2013-09-27 04:44:00,73.4,68.3,29.90,NNW,338,0.0,0.7,84,0.00,,,0.00,WUHU216HW,2013-09-27 08:44:00,
2013-09-27 04:49:00,73.4,68.3,29.90,ENE,68,0.0,0.7,84,0.00,,,0.00,WUHU216HW,2013-09-27 08:49:00,
2013-09-27 04:54:00,73.3,68.1,29.90,NNW,338,0.0,0.2,84,0.00,,,0.00,WUHU216HW,2013-09-27 08:54:00,
2013-09-27 04:59:00,73.3,68.1,29.90,NNE,23,0.0,0.2,84,0.00,,,0.00,WUHU216HW,2013-09-27 08:59:00,
2013-09-27 05:04:00,73.3,68.1,29.90,North,0,0.2,0.7,84,0.00,,,0.00,WUHU216HW,2013-09-27 09:04:00,
2013-09-27 05:09:00,73.1,68.3,29.90,NNE,23,0.2,0.7,85,0.00,,,0.00,WUHU216HW,2013-09-27 09:09:00,
2013-09-27 05:14:00,73.1,68.3,29.90,NNW,338,0.2,0.4,85,0.00,,,0.00,WUHU216HW,2013-09-27 09:14:00,
2013-09-27 05:19:00,73.1,68.3,29.91,NW,315,0.7,0.7,85,0.00,,,0.00,WUHU216HW,2013-09-27 09:19:00,
2013-09-27 05:24:00,73.1,68.3,29.91,NNW,338,0.0,0.7,85,0.00,,,0.00,WUHU216HW,2013-09-27 09:24:00,
2013-09-27 05:29:00,73.1,68.3,29.91,NNW,338,0.0,0.7,85,0.00,,,0.00,WUHU216HW,2013-09-27 09:29:00,
2013-09-27 05:34:00,73.1,68.3,29.91,NNE,23,0.2,0.4,85,0.00,,,0.00,WUHU216HW,2013-09-27 09:34:00,
2013-09-27 05:39:00,73.1,68.3,29.91,North,0,0.0,0.4,85,0.00,,,0.00,WUHU216HW,2013-09-27 09:39:00,
2013-09-27 05:44:00,73.3,68.5,29.91,North,0,0.0,0.4,85,0.00,,,0.00,WUHU216HW,2013-09-27 09:44:00,
2013-09-27 05:49:00,73.3,68.5,29.92,NNE,23,0.0,0.4,85,0.00,,,0.00,WUHU216HW,2013-09-27 09:49:00,
2013-09-27 05:54:00,73.3,68.5,29.92,NE,45,0.4,0.4,85,0.00,,,0.00,WUHU216HW,2013-09-27 09:54:00,
2013-09-27 05:59:00,73.1,68.3,29.92,North,0,0.0,0.7,85,0.00,,,0.00,WUHU216HW,2013-09-27 09:59:00,
2013-09-27 06:04:00,73.1,68.3,29.92,North,0,0.0,0.7,85,0.00,,,0.00,WUHU216HW,2013-09-27 10:04:00,
2013-09-27 06:09:00,73.1,68.3,29.92,North,0,0.2,0.4,85,0.00,,,0.00,WUHU216HW,2013-09-27 10:09:00,
2013-09-27 06:14:00,73.1,68.3,29.92,North,0,0.0,0.2,85,0.00,,,0.00,WUHU216HW,2013-09-27 10:14:00,
2013-09-27 06:19:00,73.1,68.3,29.92,NNW,338,0.0,0.2,85,0.00,,,0.00,WUHU216HW,2013-09-27 10:19:00,
2013-09-27 06:24:00,73.3,68.5,29.92,North,0,0.0,0.7,85,0.00,,,0.00,WUHU216HW,2013-09-27 10:24:00,
2013-09-27 06:29:00,73.3,68.5,29.93,North,0,0.2,0.7,85,0.00,,,0.00,WUHU216HW,2013-09-27 10:29:00,
2013-09-27 06:34:00,73.3,68.5,29.93,NNE,23,0.0,0.4,85,0.00,,,0.00,WUHU216HW,2013-09-27 10:34:00,
2013-09-27 06:39:00,73.3,68.5,29.93,North,0,0.0,0.4,85,0.00,,,0.00,WUHU216HW,2013-09-27 10:39:00,
2013-09-27 06:44:00,73.3,68.5,29.93,NNE,23,0.0,0.4,85,0.00,,,0.00,WUHU216HW,2013-09-27 10:44:00,
2013-09-27 06:49:00,73.1,68.3,29.93,NNW,338,0.2,0.4,85,0.00,,,0.00,WUHU216HW,2013-09-27 10:49:00,
2013-09-27 06:54:00,73.3,68.5,29.93,NNW,338,0.2,1.6,85,0.00,,,0.00,WUHU216HW,2013-09-27 10:54:00,
2013-09-27 06:59:00,73.3,68.5,29.94,NNW,338,0.2,1.6,85,0.00,,,0.00,WUHU216HW,2013-09-27 10:59:00,
2013-09-27 07:04:00,73.3,68.5,29.94,NNW,338,0.0,0.7,85,0.00,,,0.00,WUHU216HW,2013-09-27 11:04:00,
2013-09-27 07:09:00,73.3,68.5,29.94,NNE,23,0.0,0.7,85,0.00,,,0.00,WUHU216HW,2013-09-27 11:09:00,
2013-09-27 07:14:00,73.3,68.5,29.94,NW,315,0.0,0.4,85,0.00,,,0.00,WUHU216HW,2013-09-27 11:14:00,
2013-09-27 07:19:00,73.3,68.5,29.94,NNE,23,0.0,0.4,85,0.00,,,0.00,WUHU216HW,2013-09-27 11:19:00,
2013-09-27 07:24:00,73.3,68.5,29.94,NNW,338,0.2,0.4,85,0.00,,,0.00,WUHU216HW,2013-09-27 11:24:00,
2013-09-27 07:29:00,73.3,68.5,29.94,North,0,0.0,0.7,85,0.00,,,0.00,WUHU216HW,2013-09-27 11:29:00,
2013-09-27 07:34:00,73.1,68.3,29.95,North,0,0.0,0.9,85,0.00,,,0.00,WUHU216HW,2013-09-27 11:34:00,
2013-09-27 07:39:00,73.1,68.3,29.95,NNW,338,0.0,0.9,85,0.00,,,0.00,WUHU216HW,2013-09-27 11:39:00,
2013-09-27 07:44:00,73.1,68.3,29.95,NW,315,0.0,0.9,85,0.00,,,0.00,WUHU216HW,2013-09-27 11:44:00,
2013-09-27 07:49:00,73.1,68.3,29.95,NNE,23,0.0,0.4,85,0.00,,,0.00,WUHU216HW,2013-09-27 11:49:00,
2013-09-27 07:54:00,73.1,68.3,29.95,North,0,0.0,0.9,85,0.00,,,0.00,WUHU216HW,2013-09-27 11:54:00,
2013-09-27 07:59:00,73.1,68.3,29.95,NNE,23,0.0,0.9,85,0.00,,,0.00,WUHU216HW,2013-09-27 11:59:00,
2013-09-27 08:04:00,73.1,68.3,29.95,NE,45,0.4,0.4,85,0.00,,,0.00,WUHU216HW,2013-09-27 12:04:00,
2013-09-27 08:09:00,73.4,68.7,29.96,WNW,293,0.9,0.9,85,0.00,,,0.00,WUHU216HW,2013-09-27 12:09:00,
2013-09-27 08:14:00,73.3,68.5,29.96,North,0,0.2,0.9,85,0.00,,,0.00,WUHU216HW,2013-09-27 12:14:00,
2013-09-27 08:19:00,73.4,68.7,29.96,North,0,0.7,0.9,85,0.00,,,0.00,WUHU216HW,2013-09-27 12:19:00,
2013-09-27 08:24:00,73.4,68.7,29.96,NNE,23,0.0,0.7,85,0.00,,,0.00,WUHU216HW,2013-09-27 12:24:00,
2013-09-27 08:29:00,73.4,68.7,29.96,NW,315,0.2,0.9,85,0.00,,,0.00,WUHU216HW,2013-09-27 12:29:00,
2013-09-27 08:34:00,73.6,68.9,29.96,North,0,0.0,1.8,85,0.00,,,0.00,WUHU216HW,2013-09-27 12:34:00,
2013-09-27 08:39:00,73.8,69.0,29.96,NNW,338,0.2,1.8,85,0.00,,,0.00,WUHU216HW,2013-09-27 12:39:00,
2013-09-27 08:44:00,73.6,68.9,29.96,North,0,0.0,0.9,85,0.00,,,0.00,WUHU216HW,2013-09-27 12:44:00,
2013-09-27 08:49:00,73.6,68.9,29.96,North,0,0.4,0.9,85,0.00,,,0.00,WUHU216HW,2013-09-27 12:49:00,
2013-09-27 08:54:00,73.8,69.0,29.97,ENE,68,0.0,0.9,85,0.00,,,0.00,WUHU216HW,2013-09-27 12:54:00,
2013-09-27 08:59:00,73.8,69.0,29.97,NNE,23,0.2,1.8,85,0.00,,,0.00,WUHU216HW,2013-09-27 12:59:00,
2013-09-27 09:04:00,74.2,69.4,29.97,NW,315,0.0,1.8,85,0.00,,,0.00,WUHU216HW,2013-09-27 13:04:00,
2013-09-27 09:09:00,74.3,69.6,29.97,NNE,23,0.0,1.1,85,0.00,,,0.00,WUHU216HW,2013-09-27 13:09:00,
2013-09-27 09:14:00,74.7,69.6,29.97,NNW,338,0.2,0.7,84,0.00,,,0.00,WUHU216HW,2013-09-27 13:14:00,
2013-09-27 09:19:00,74.9,69.8,29.97,NNW,338,0.4,1.1,84,0.00,,,0.00,WUHU216HW,2013-09-27 13:19:00,
2013-09-27 09:24:00,74.9,69.8,29.97,North,0,0.0,1.1,84,0.00,,,0.00,WUHU216HW,2013-09-27 13:24:00,
2013-09-27 09:29:00,74.9,69.8,29.97,NNE,23,0.0,0.9,84,0.00,,,0.00,WUHU216HW,2013-09-27 13:29:00,
2013-09-27 09:34:00,74.9,69.8,29.97,NE,45,0.4,0.7,84,0.00,,,0.00,WUHU216HW,2013-09-27 13:34:00,
2013-09-27 09:39:00,75.2,69.8,29.97,ESE,113,0.2,0.7,83,0.00,,,0.00,WUHU216HW,2013-09-27 13:39:00,
2013-09-27 09:44:00,75.6,70.1,29.97,NNE,23,0.0,1.8,83,0.00,,,0.00,WUHU216HW,2013-09-27 13:44:00,
2013-09-27 09:49:00,75.8,69.9,29.97,NNW,338,0.4,1.8,82,0.00,,,0.00,WUHU216HW,2013-09-27 13:49:00,
2013-09-27 09:54:00,75.8,69.9,29.97,NNW,338,0.0,0.4,82,0.00,,,0.00,WUHU216HW,2013-09-27 13:54:00,
2013-09-27 09:59:00,76.1,70.3,29.97,North,0,0.4,0.4,82,0.00,,,0.00,WUHU216HW,2013-09-27 13:59:00,
2013-09-27 10:04:00,76.5,70.3,29.97,NNW,338,0.2,0.9,81,0.00,,,0.00,WUHU216HW,2013-09-27 14:04:00,
2013-09-27 10:09:00,76.5,70.3,29.97,ENE,68,2.0,2.2,81,0.00,,,0.00,WUHU216HW,2013-09-27 14:09:00,
2013-09-27 10:14:00,76.9,70.6,29.97,SSE,158,0.2,2.2,81,0.00,,,0.00,WUHU216HW,2013-09-27 14:14:00,
2013-09-27 10:19:00,77.4,71.1,29.97,ENE,68,0.0,1.8,81,0.00,,,0.00,WUHU216HW,2013-09-27 14:19:00,
2013-09-27 10:24:00,78.1,71.5,29.97,NE,45,0.0,1.8,80,0.00,,,0.00,WUHU216HW,2013-09-27 14:24:00,
2013-09-27 10:29:00,78.3,71.3,29.97,ENE,68,0.0,1.8,79,0.00,,,0.00,WUHU216HW,2013-09-27 14:29:00,
2013-09-27 10:34:00,78.3,70.8,29.97,NNE,23,0.4,1.8,78,0.00,,,0.00,WUHU216HW,2013-09-27 14:34:00,
2013-09-27 10:39:00,78.5,71.0,29.97,ESE,113,0.9,0.9,78,0.00,,,0.00,WUHU216HW,2013-09-27 14:39:00,
2013-09-27 10:44:00,79.0,71.6,29.97,ENE,68,0.4,1.1,78,0.00,,,0.00,WUHU216HW,2013-09-27 14:44:00,
2013-09-27 10:49:00,79.4,71.6,29.97,NE,45,0.4,1.1,77,0.00,,,0.00,WUHU216HW,2013-09-27 14:49:00,
2013-09-27 10:54:00,79.6,71.3,29.97,NE,45,0.0,0.9,76,0.00,,,0.00,WUHU216HW,2013-09-27 14:54:00,
2013-09-27 10:59:00,79.9,71.6,29.97,NE,45,0.0,2.5,76,0.00,,,0.00,WUHU216HW,2013-09-27 14:59:00,
2013-09-27 11:04:00,80.3,72.0,29.97,NNE,23,0.0,2.5,76,0.00,,,0.00,WUHU216HW,2013-09-27 15:04:00,
2013-09-27 11:09:00,80.6,72.0,29.97,North,0,0.4,1.8,75,0.00,,,0.00,WUHU216HW,2013-09-27 15:09:00,
2013-09-27 11:14:00,80.8,72.2,29.97,East,90,1.6,1.8,75,0.00,,,0.00,WUHU216HW,2013-09-27 15:14:00,
2013-09-27 11:19:00,81.5,72.8,29.97,ENE,68,0.0,2.0,75,0.00,,,0.00,WUHU216HW,2013-09-27 15:19:00,
2013-09-27 11:24:00,81.9,72.8,29.97,ENE,68,0.0,2.0,74,0.00,,,0.00,WUHU216HW,2013-09-27 15:24:00,
2013-09-27 11:29:00,82.3,73.5,29.97,ENE,68,0.4,1.1,75,0.00,,,0.00,WUHU216HW,2013-09-27 15:29:00,
2013-09-27 11:34:00,82.4,72.9,29.97,NNW,338,0.4,1.8,73,0.00,,,0.00,WUHU216HW,2013-09-27 15:34:00,
2013-09-27 11:39:00,82.6,73.1,29.97,WSW,248,0.7,1.8,73,0.00,,,0.00,WUHU216HW,2013-09-27 15:39:00,
2013-09-27 11:44:00,83.2,73.6,29.97,NW,315,0.2,1.6,73,0.00,,,0.00,WUHU216HW,2013-09-27 15:44:00,
2013-09-27 11:49:00,83.3,73.4,29.97,ESE,113,0.9,1.6,72,0.00,,,0.00,WUHU216HW,2013-09-27 15:49:00,
2013-09-27 11:54:00,83.5,73.5,29.97,North,0,0.2,2.2,72,0.00,,,0.00,WUHU216HW,2013-09-27 15:54:00,
2013-09-27 11:59:00,83.5,73.5,29.97,NNW,338,0.7,2.2,72,0.00,,,0.00,WUHU216HW,2013-09-27 15:59:00,
2013-09-27 12:04:00,83.9,73.9,29.97,NE,45,0.4,2.0,72,0.00,,,0.00,WUHU216HW,2013-09-27 16:04:00,
2013-09-27 12:09:00,84.2,73.8,29.97,ESE,113,0.9,2.0,71,0.00,,,0.00,WUHU216HW,2013-09-27 16:09:00,
2013-09-27 12:14:00,84.6,74.2,29.96,NNE,23,0.4,2.0,71,0.00,,,0.00,WUHU216HW,2013-09-27 16:14:00,
2013-09-27 12:19:00,84.8,74.0,29.96,North,0,0.0,1.8,70,0.00,,,0.00,WUHU216HW,2013-09-27 16:19:00,
2013-09-27 12:24:00,84.8,74.0,29.96,North,0,0.9,1.8,70,0.00,,,0.00,WUHU216HW,2013-09-27 16:24:00,
2013-09-27 12:29:00,85.1,74.3,29.96,North,0,0.4,1.8,70,0.00,,,0.00,WUHU216HW,2013-09-27 16:29:00,
2013-09-27 12:34:00,85.7,74.9,29.96,NNW,338,0.9,1.8,70,0.00,,,0.00,WUHU216HW,2013-09-27 16:34:00,
2013-09-27 12:39:00,86.0,74.8,29.95,ESE,113,0.0,1.8,69,0.00,,,0.00,WUHU216HW,2013-09-27 16:39:00,
2013-09-27 12:45:00,86.4,74.6,29.95,North,0,0.4,1.8,68,0.00,,,0.00,WUHU216HW,2013-09-27 16:45:00,
2013-09-27 12:50:00,86.4,74.2,29.95,NNW,338,0.4,1.3,67,0.00,,,0.00,WUHU216HW,2013-09-27 16:50:00,
2013-09-27 12:55:00,86.4,74.6,29.95,SE,135,1.1,1.8,68,0.00,,,0.00,WUHU216HW,2013-09-27 16:55:00,
2013-09-27 13:00:00,87.1,74.9,29.95,ESE,113,0.9,1.8,67,0.00,,,0.00,WUHU216HW,2013-09-27 17:00:00,
2013-09-27 13:05:00,87.5,74.7,29.95,NNE,23,0.9,2.2,66,0.00,,,0.00,WUHU216HW,2013-09-27 17:05:00,
2013-09-27 13:10:00,88.0,75.3,29.95,ENE,68,2.5,3.1,66,0.00,,,0.00,WUHU216HW,2013-09-27 17:10:00,
2013-09-27 13:15:00,88.4,75.2,29.95,ESE,113,1.8,4.0,65,0.00,,,0.00,WUHU216HW,2013-09-27 17:15:00,
2013-09-27 13:20:00,88.6,75.3,29.94,WNW,293,0.4,4.0,65,0.00,,,0.00,WUHU216HW,2013-09-27 17:20:00,
2013-09-27 13:25:00,89.1,75.8,29.94,West,270,0.4,1.8,65,0.00,,,0.00,WUHU216HW,2013-09-27 17:25:00,
2013-09-27 13:26:00,89.3,75.5,29.94,ENE,68,0.4,1.3,64,0.00,,,0.00,WUHU216HW,2013-09-27 17:26:00,
2013-09-27 13:31:00,89.5,75.3,29.94,East,90,1.8,1.8,63,0.00,,,0.00,WUHU216HW,2013-09-27 17:31:00,
2013-09-27 13:36:00,89.5,75.3,29.94,NE,45,0.2,3.6,63,0.00,,,0.00,WUHU216HW,2013-09-27 17:36:00,
2013-09-27 13:41:00,89.5,74.3,29.93,NW,315,0.2,3.6,61,0.00,,,0.00,WUHU216HW,2013-09-27 17:41:00,
2013-09-27 13:46:00,89.5,74.3,29.93,NNE,23,0.2,2.9,61,0.00,,,0.00,WUHU216HW,2013-09-27 17:46:00,
2013-09-27 13:51:00,89.5,74.3,29.93,NE,45,1.1,2.2,61,0.00,,,0.00,WUHU216HW,2013-09-27 17:51:00,
2013-09-27 13:56:00,90.0,74.8,29.93,North,0,0.0,2.2,61,0.00,,,0.00,WUHU216HW,2013-09-27 17:56:00,
2013-09-27 14:01:00,90.4,74.6,29.93,North,0,0.2,2.5,60,0.00,,,0.00,WUHU216HW,2013-09-27 18:01:00,
2013-09-27 14:06:00,90.5,73.7,29.92,NNE,23,0.9,2.5,58,0.00,,,0.00,WUHU216HW,2013-09-27 18:06:00,
2013-09-27 14:11:00,90.4,73.5,29.92,SW,225,0.0,1.8,58,0.00,,,0.00,WUHU216HW,2013-09-27 18:11:00,
2013-09-27 14:16:00,90.4,73.0,29.92,NE,45,1.8,2.5,57,0.00,,,0.00,WUHU216HW,2013-09-27 18:16:00,
2013-09-27 14:21:00,90.5,72.6,29.92,East,90,0.4,2.5,56,0.00,,,0.00,WUHU216HW,2013-09-27 18:21:00,
2013-09-27 14:26:00,90.9,73.0,29.92,North,0,0.4,2.5,56,0.00,,,0.00,WUHU216HW,2013-09-27 18:26:00,
2013-09-27 14:31:00,91.1,73.1,29.91,NE,45,0.4,2.7,56,0.00,,,0.00,WUHU216HW,2013-09-27 18:31:00,
2013-09-27 14:36:00,91.4,72.9,29.91,NNE,23,0.2,2.7,55,0.00,,,0.00,WUHU216HW,2013-09-27 18:36:00,
2013-09-27 14:41:00,91.3,72.2,29.91,NW,315,0.7,2.2,54,0.00,,,0.00,WUHU216HW,2013-09-27 18:41:00,
2013-09-27 14:46:00,91.4,72.9,29.90,NNE,23,0.0,1.8,55,0.00,,,0.00,WUHU216HW,2013-09-27 18:46:00,
2013-09-27 14:51:00,91.4,72.4,29.90,ENE,68,0.4,1.8,54,0.00,,,0.00,WUHU216HW,2013-09-27 18:51:00,
2013-09-27 14:56:00,91.6,72.0,29.90,NNE,23,0.2,3.1,53,0.00,,,0.00,WUHU216HW,2013-09-27 18:56:00,
2013-09-27 15:01:00,92.0,71.8,29.90,East,90,2.0,3.1,52,0.00,,,0.00,WUHU216HW,2013-09-27 19:01:00,
2013-09-27 15:06:00,91.8,71.7,29.90,ESE,113,5.4,5.4,52,0.00,,,0.00,WUHU216HW,2013-09-27 19:06:00,
2013-09-27 15:11:00,92.0,71.2,29.90,NNE,23,1.3,5.4,51,0.00,,,0.00,WUHU216HW,2013-09-27 19:11:00,
2013-09-27 15:16:00,92.2,71.9,29.90,North,0,0.9,4.3,52,0.00,,,0.00,WUHU216HW,2013-09-27 19:16:00,
2013-09-27 15:21:00,91.8,72.2,29.89,ESE,113,0.0,1.8,53,0.00,,,0.00,WUHU216HW,2013-09-27 19:21:00,
2013-09-27 15:26:00,91.3,73.8,29.90,ENE,68,0.2,1.8,57,0.00,,,0.00,WUHU216HW,2013-09-27 19:26:00,
2013-09-27 15:31:00,90.9,74.6,29.90,NNW,338,0.0,0.9,59,0.00,,,0.00,WUHU216HW,2013-09-27 19:31:00,
2013-09-27 15:36:00,90.7,74.4,29.89,NW,315,0.2,2.2,59,0.00,,,0.00,WUHU216HW,2013-09-27 19:36:00,
2013-09-27 15:41:00,90.4,74.6,29.89,East,90,0.9,2.2,60,0.00,,,0.00,WUHU216HW,2013-09-27 19:41:00,
2013-09-27 15:46:00,89.8,74.2,29.89,West,270,0.4,1.6,60,0.00,,,0.00,WUHU216HW,2013-09-27 19:46:00,
2013-09-27 15:51:00,88.9,74.3,29.89,North,0,0.4,1.6,62,0.00,,,0.00,WUHU216HW,2013-09-27 19:51:00,
2013-09-27 15:56:00,88.2,74.1,29.90,South,180,0.4,1.1,63,0.00,,,0.00,WUHU216HW,2013-09-27 19:56:00,
2013-09-27 16:01:00,87.8,74.2,29.90,ESE,113,0.4,1.1,64,0.00,,,0.00,WUHU216HW,2013-09-27 20:01:00,
2013-09-27 16:06:00,87.5,73.8,29.90,NNW,338,0.4,0.7,64,0.00,,,0.00,WUHU216HW,2013-09-27 20:06:00,
2013-09-27 16:11:00,87.5,73.8,29.89,East,90,1.6,1.6,64,0.00,,,0.00,WUHU216HW,2013-09-27 20:11:00,
2013-09-27 16:16:00,87.1,73.4,29.90,North,0,0.4,2.0,64,0.00,,,0.00,WUHU216HW,2013-09-27 20:16:00,
2013-09-27 16:21:00,86.9,72.8,29.90,North,0,0.2,2.0,63,0.00,,,0.00,WUHU216HW,2013-09-27 20:21:00,
2013-09-27 16:26:00,86.8,72.6,29.89,NE,45,0.4,1.8,63,0.00,,,0.00,WUHU216HW,2013-09-27 20:26:00,
2013-09-27 16:31:00,86.8,72.2,29.90,North,0,0.4,1.1,62,0.00,,,0.00,WUHU216HW,2013-09-27 20:31:00,
2013-09-27 16:36:00,86.4,71.8,29.89,NE,45,0.4,1.1,62,0.00,,,0.00,WUHU216HW,2013-09-27 20:36:00,
2013-09-27 16:41:00,86.0,71.5,29.89,NE,45,0.4,3.4,62,0.00,,,0.00,WUHU216HW,2013-09-27 20:41:00,
2013-09-27 16:46:00,86.0,72.0,29.89,NE,45,1.1,3.4,63,0.00,,,0.00,WUHU216HW,2013-09-27 20:46:00,
2013-09-27 16:51:00,86.0,72.0,29.89,SSE,158,0.7,2.2,63,0.00,,,0.00,WUHU216HW,2013-09-27 20:51:00,
2013-09-27 16:56:00,85.9,71.4,29.89,NNE,23,1.3,3.1,62,0.00,,,0.00,WUHU216HW,2013-09-27 20:56:00,
2013-09-27 17:01:00,85.7,71.2,29.89,East,90,2.9,3.1,62,0.00,,,0.00,WUHU216HW,2013-09-27 21:01:00,
2013-09-27 17:06:00,86.0,71.0,29.89,ESE,113,0.4,3.1,61,0.00,,,0.00,WUHU216HW,2013-09-27 21:06:00,
2013-09-27 17:11:00,86.4,71.4,29.90,NNE,23,0.4,3.1,61,0.00,,,0.00,WUHU216HW,2013-09-27 21:11:00,
2013-09-27 17:16:00,86.8,71.3,29.90,East,90,0.7,2.9,60,0.00,,,0.00,WUHU216HW,2013-09-27 21:16:00,
2013-09-27 17:21:00,86.6,70.6,29.89,ENE,68,1.8,2.9,59,0.00,,,0.00,WUHU216HW,2013-09-27 21:21:00,
2013-09-27 17:26:00,86.6,70.6,29.90,NE,45,0.9,4.0,59,0.00,,,0.00,WUHU216HW,2013-09-27 21:26:00,
2013-09-27 17:31:00,86.6,71.1,29.90,North,0,1.1,4.0,60,0.00,,,0.00,WUHU216HW,2013-09-27 21:31:00,
2013-09-27 17:36:00,86.6,70.6,29.90,North,0,0.9,1.8,59,0.00,,,0.00,WUHU216HW,2013-09-27 21:36:00,
2013-09-27 17:41:00,86.6,70.0,29.90,North,0,0.4,1.8,58,0.00,,,0.00,WUHU216HW,2013-09-27 21:41:00,
2013-09-27 17:46:00,86.2,70.2,29.90,South,180,0.9,2.5,59,0.00,,,0.00,WUHU216HW,2013-09-27 21:46:00,
2013-09-27 17:51:00,86.2,70.7,29.91,NNE,23,0.7,5.4,60,0.00,,,0.00,WUHU216HW,2013-09-27 21:51:00,
2013-09-27 17:56:00,86.4,70.9,29.91,NNE,23,2.7,5.4,60,0.00,,,0.00,WUHU216HW,2013-09-27 21:56:00,
2013-09-27 18:01:00,86.4,70.4,29.91,North,0,3.4,3.4,59,0.00,,,0.00,WUHU216HW,2013-09-27 22:01:00,
2013-09-27 18:06:00,86.8,70.7,29.91,NNW,338,0.4,3.4,59,0.00,,,0.00,WUHU216HW,2013-09-27 22:06:00,
2013-09-27 18:11:00,86.9,70.9,29.91,East,90,0.9,3.4,59,0.00,,,0.00,WUHU216HW,2013-09-27 22:11:00,
2013-09-27 18:16:00,86.8,70.7,29.91,NW,315,0.9,2.2,59,0.00,,,0.00,WUHU216HW,2013-09-27 22:16:00,
2013-09-27 18:21:00,86.0,70.6,29.91,WSW,248,1.1,2.2,60,0.00,,,0.00,WUHU216HW,2013-09-27 22:21:00,
2013-09-27 18:26:00,85.3,69.9,29.91,North,0,0.4,1.8,60,0.00,,,0.00,WUHU216HW,2013-09-27 22:26:00,
2013-09-27 18:31:00,85.0,70.0,29.92,NE,45,0.2,1.8,61,0.00,,,0.00,WUHU216HW,2013-09-27 22:31:00,
2013-09-27 18:36:00,84.6,70.2,29.92,ENE,68,0.4,1.8,62,0.00,,,0.00,WUHU216HW,2013-09-27 22:36:00,
2013-09-27 18:41:00,84.4,70.5,29.92,NE,45,0.0,1.3,63,0.00,,,0.00,WUHU216HW,2013-09-27 22:41:00,
2013-09-27 18:46:00,84.2,70.3,29.92,NNE,23,0.4,1.3,63,0.00,,,0.00,WUHU216HW,2013-09-27 22:46:00,
2013-09-27 18:51:00,84.1,70.1,29.92,NNE,23,0.2,1.3,63,0.00,,,0.00,WUHU216HW,2013-09-27 22:51:00,
2013-09-27 18:56:00,83.9,70.4,29.92,North,0,0.0,1.6,64,0.00,,,0.00,WUHU216HW,2013-09-27 22:56:00,
2013-09-27 19:01:00,83.9,70.4,29.92,NNE,23,0.2,1.6,64,0.00,,,0.00,WUHU216HW,2013-09-27 23:01:00,
2013-09-27 19:06:00,83.7,70.7,29.92,SE,135,0.2,1.8,65,0.00,,,0.00,WUHU216HW,2013-09-27 23:06:00,
2013-09-27 19:11:00,83.3,70.3,29.92,NW,315,0.0,1.8,65,0.00,,,0.00,WUHU216HW,2013-09-27 23:11:00,
2013-09-27 19:16:00,83.2,70.1,29.92,NE,45,0.4,2.2,65,0.00,,,0.00,WUHU216HW,2013-09-27 23:16:00,
2013-09-27 19:21:00,83.2,70.6,29.92,NNE,23,0.7,2.2,66,0.00,,,0.00,WUHU216HW,2013-09-27 23:21:00,
2013-09-27 19:26:00,83.2,70.6,29.92,NE,45,0.4,1.8,66,0.00,,,0.00,WUHU216HW,2013-09-27 23:26:00,
2013-09-27 19:31:00,83.0,70.4,29.93,North,0,0.0,1.8,66,0.00,,,0.00,WUHU216HW,2013-09-27 23:31:00,
2013-09-27 19:36:00,83.0,70.4,29.92,ENE,68,0.9,1.3,66,0.00,,,0.00,WUHU216HW,2013-09-27 23:36:00,
2013-09-27 19:41:00,82.8,70.2,29.93,WNW,293,2.7,2.7,66,0.00,,,0.00,WUHU216HW,2013-09-27 23:41:00,
2013-09-27 19:46:00,82.6,70.0,29.93,North,0,0.0,2.7,66,0.00,,,0.00,WUHU216HW,2013-09-27 23:46:00,
2013-09-27 19:51:00,82.6,69.6,29.93,NNE,23,0.0,2.7,65,0.00,,,0.00,WUHU216HW,2013-09-27 23:51:00,
2013-09-27 19:56:00,82.4,69.8,29.93,NNE,23,0.2,1.1,66,0.00,,,0.00,WUHU216HW,2013-09-27 23:56:00,
2013-09-27 20:01:00,82.4,69.8,29.93,North,0,0.0,1.1,66,0.00,,,0.00,WUHU216HW,2013-09-28 00:01:00,
2013-09-27 20:06:00,82.3,69.7,29.94,ENE,68,1.1,1.3,66,0.00,,,0.00,WUHU216HW,2013-09-28 00:06:00,
2013-09-27 20:11:00,82.3,69.7,29.94,North,0,0.0,1.3,66,0.00,,,0.00,WUHU216HW,2013-09-28 00:11:00,
2013-09-27 20:16:00,82.1,69.5,29.94,NNW,338,0.2,1.1,66,0.00,,,0.00,WUHU216HW,2013-09-28 00:16:00,
2013-09-27 20:21:00,82.1,69.5,29.94,NNW,338,0.0,1.1,66,0.00,,,0.00,WUHU216HW,2013-09-28 00:21:00,
2013-09-27 20:26:00,82.1,69.9,29.94,East,90,0.2,0.7,67,0.00,,,0.00,WUHU216HW,2013-09-28 00:26:00,
2013-09-27 20:31:00,82.1,69.9,29.95,NNW,338,0.2,0.7,67,0.00,,,0.00,WUHU216HW,2013-09-28 00:31:00,
2013-09-27 20:36:00,81.9,69.9,29.95,NNE,23,0.2,1.1,67,0.00,,,0.00,WUHU216HW,2013-09-28 00:36:00,
2013-09-27 20:41:00,81.7,69.7,29.95,NNE,23,0.0,1.1,67,0.00,,,0.00,WUHU216HW,2013-09-28 00:41:00,
2013-09-27 20:46:00,81.7,70.1,29.95,NNW,338,0.0,0.9,68,0.00,,,0.00,WUHU216HW,2013-09-28 00:46:00,
2013-09-27 20:51:00,81.7,70.1,29.95,NE,45,0.0,0.9,68,0.00,,,0.00,WUHU216HW,2013-09-28 00:51:00,
2013-09-27 20:56:00,81.7,70.1,29.95,NNE,23,0.0,1.6,68,0.00,,,0.00,WUHU216HW,2013-09-28 00:56:00,
2013-09-27 21:01:00,81.7,70.1,29.96,North,0,0.0,1.6,68,0.00,,,0.00,WUHU216HW,2013-09-28 01:01:00,
2013-09-27 21:06:00,81.5,70.4,29.95,NE,45,0.0,0.7,69,0.00,,,0.00,WUHU216HW,2013-09-28 01:06:00,
2013-09-27 21:11:00,81.5,70.4,29.96,NE,45,0.0,0.7,69,0.00,,,0.00,WUHU216HW,2013-09-28 01:11:00,
2013-09-27 21:16:00,81.4,70.2,29.96,NE,45,0.2,1.8,69,0.00,,,0.00,WUHU216HW,2013-09-28 01:16:00,
2013-09-27 21:21:00,81.4,70.2,29.96,East,90,0.4,1.8,69,0.00,,,0.00,WUHU216HW,2013-09-28 01:21:00,
2013-09-27 21:26:00,81.4,70.2,29.96,East,90,0.2,1.1,69,0.00,,,0.00,WUHU216HW,2013-09-28 01:26:00,
2013-09-27 21:31:00,81.4,70.2,29.96,North,0,0.0,1.1,69,0.00,,,0.00,WUHU216HW,2013-09-28 01:31:00,
2013-09-27 21:36:00,81.4,70.2,29.97,NE,45,0.0,1.1,69,0.00,,,0.00,WUHU216HW,2013-09-28 01:36:00,
2013-09-27 21:41:00,81.4,70.2,29.97,East,90,0.4,1.1,69,0.00,,,0.00,WUHU216HW,2013-09-28 01:41:00,
2013-09-27 21:46:00,81.2,70.0,29.97,ENE,68,2.9,2.9,69,0.00,,,0.00,WUHU216HW,2013-09-28 01:46:00,
2013-09-27 21:51:00,81.2,70.0,29.97,West,270,0.0,2.9,69,0.00,,,0.00,WUHU216HW,2013-09-28 01:51:00,
2013-09-27 21:56:00,81.0,70.4,29.98,NW,315,0.0,2.9,70,0.00,,,0.00,WUHU216HW,2013-09-28 01:56:00,
2013-09-27 22:01:00,81.0,70.4,29.98,NE,45,0.4,1.8,70,0.00,,,0.00,WUHU216HW,2013-09-28 02:01:00,
2013-09-27 22:06:00,80.8,70.2,29.98,ENE,68,0.2,3.4,70,0.00,,,0.00,WUHU216HW,2013-09-28 02:06:00,
2013-09-27 22:11:00,80.6,70.0,29.98,North,0,1.1,3.4,70,0.00,,,0.00,WUHU216HW,2013-09-28 02:11:00,
2013-09-27 22:16:00,80.3,69.7,29.99,North,0,0.4,3.4,70,0.00,,,0.00,WUHU216HW,2013-09-28 02:16:00,
2013-09-27 22:21:00,80.1,69.5,29.98,NNW,338,0.9,2.0,70,0.00,,,0.00,WUHU216HW,2013-09-28 02:21:00,
2013-09-27 22:26:00,80.1,69.8,29.98,NE,45,0.2,3.6,71,0.00,,,0.00,WUHU216HW,2013-09-28 02:26:00,
2013-09-27 22:31:00,79.9,69.7,29.98,NE,45,0.2,3.6,71,0.00,,,0.00,WUHU216HW,2013-09-28 02:31:00,
2013-09-27 22:36:00,79.7,69.5,29.99,NE,45,0.9,2.5,71,0.00,,,0.00,WUHU216HW,2013-09-28 02:36:00,
2013-09-27 22:41:00,79.6,69.3,29.99,NE,45,0.4,3.4,71,0.00,,,0.00,WUHU216HW,2013-09-28 02:41:00,
2013-09-27 22:46:00,79.6,69.3,29.99,NE,45,0.2,3.4,71,0.00,,,0.00,WUHU216HW,2013-09-28 02:46:00,
2013-09-27 22:51:00,79.6,69.8,29.99,WNW,293,0.4,1.6,72,0.00,,,0.00,WUHU216HW,2013-09-28 02:51:00,
2013-09-27 22:56:00,79.4,69.6,29.99,NNE,23,0.4,2.2,72,0.00,,,0.00,WUHU216HW,2013-09-28 02:56:00,
2013-09-27 23:01:00,79.2,69.8,29.99,ESE,113,0.4,2.5,73,0.00,,,0.00,WUHU216HW,2013-09-28 03:01:00,
2013-09-27 23:06:00,79.0,69.6,29.99,NE,45,1.8,2.7,73,0.00,,,0.00,WUHU216HW,2013-09-28 03:06:00,
2013-09-27 23:11:00,78.8,69.9,29.99,NE,45,0.4,2.7,74,0.00,,,0.00,WUHU216HW,2013-09-28 03:11:00,
2013-09-27 23:16:00,78.8,69.9,29.99,NNE,23,0.7,2.9,74,0.00,,,0.00,WUHU216HW,2013-09-28 03:16:00,
2013-09-27 23:21:00,78.8,69.9,29.99,East,90,0.0,2.9,74,0.00,,,0.00,WUHU216HW,2013-09-28 03:21:00,
2013-09-27 23:26:00,78.5,69.8,29.99,NW,315,1.1,2.5,75,0.00,,,0.00,WUHU216HW,2013-09-28 03:26:00,
2013-09-27 23:31:00,78.5,69.8,29.99,NNE,23,1.8,2.7,75,0.00,,,0.00,WUHU216HW,2013-09-28 03:31:00,
2013-09-27 23:36:00,78.5,69.8,29.99,NNE,23,0.4,2.7,75,0.00,,,0.00,WUHU216HW,2013-09-28 03:36:00,
2013-09-27 23:41:00,78.3,70.1,29.99,East,90,0.2,2.5,76,0.00,,,0.00,WUHU216HW,2013-09-28 03:41:00,
2013-09-27 23:46:00,78.3,70.1,29.99,SE,135,0.7,2.5,76,0.00,,,0.00,WUHU216HW,2013-09-28 03:46:00,
2013-09-27 23:51:00,78.1,69.9,29.99,North,0,0.2,2.0,76,0.00,,,0.00,WUHU216HW,2013-09-28 03:51:00,
2013-09-27 23:56:00,78.1,69.9,29.99,East,90,0.7,2.0,76,0.00,,,0.00,WUHU216HW,2013-09-28 03:56:00,